sensor_id;sensor_type;location;lat;lon;timestamp;temperature;humidity
43320;DHT22;28914;48.722;9.332;2023-07-02T00:04:24;21.30;73.70
43320;DHT22;28914;48.722;9.332;2023-07-02T00:09:43;21.20;73.80
43320;DHT22;28914;48.722;9.332;2023-07-02T00:15:04;21.10;73.90
43320;DHT22;28914;48.722;9.332;2023-07-02T00:20:23;21.10;74.20
43320;DHT22;28914;48.722;9.332;2023-07-02T00:25:42;21.00;74.50
43320;DHT22;28914;48.722;9.332;2023-07-02T00:31:02;20.90;74.90
43320;DHT22;28914;48.722;9.332;2023-07-02T00:36:21;20.80;74.80
43320;DHT22;28914;48.722;9.332;2023-07-02T00:41:40;20.70;74.80
43320;DHT22;28914;48.722;9.332;2023-07-02T00:47:01;20.70;74.70
43320;DHT22;28914;48.722;9.332;2023-07-02T00:52:21;20.50;74.80
43320;DHT22;28914;48.722;9.332;2023-07-02T00:57:40;20.40;75.30
43320;DHT22;28914;48.722;9.332;2023-07-02T01:02:59;20.30;76.20
43320;DHT22;28914;48.722;9.332;2023-07-02T01:08:19;20.10;76.10
43320;DHT22;28914;48.722;9.332;2023-07-02T01:13:38;20.10;76.60
43320;DHT22;28914;48.722;9.332;2023-07-02T01:18:57;20.00;76.70
43320;DHT22;28914;48.722;9.332;2023-07-02T01:24:18;20.00;77.00
43320;DHT22;28914;48.722;9.332;2023-07-02T01:29:40;20.10;77.30
43320;DHT22;28914;48.722;9.332;2023-07-02T01:35:00;20.10;77.20
43320;DHT22;28914;48.722;9.332;2023-07-02T01:40:19;20.10;77.10
43320;DHT22;28914;48.722;9.332;2023-07-02T01:45:41;20.10;77.00
43320;DHT22;28914;48.722;9.332;2023-07-02T01:51:00;20.10;76.80
43320;DHT22;28914;48.722;9.332;2023-07-02T01:56:20;20.00;77.30
43320;DHT22;28914;48.722;9.332;2023-07-02T02:01:39;20.00;77.70
43320;DHT22;28914;48.722;9.332;2023-07-02T02:07:02;19.90;77.50
43320;DHT22;28914;48.722;9.332;2023-07-02T02:12:21;19.80;77.20
43320;DHT22;28914;48.722;9.332;2023-07-02T02:17:40;19.70;77.20
43320;DHT22;28914;48.722;9.332;2023-07-02T02:22:59;19.60;77.60
43320;DHT22;28914;48.722;9.332;2023-07-02T02:28:18;19.60;77.80
43320;DHT22;28914;48.722;9.332;2023-07-02T02:33:38;19.60;78.10
43320;DHT22;28914;48.722;9.332;2023-07-02T02:38:57;19.60;78.70
43320;DHT22;28914;48.722;9.332;2023-07-02T02:44:16;19.60;78.60
43320;DHT22;28914;48.722;9.332;2023-07-02T02:49:37;19.60;78.60
43320;DHT22;28914;48.722;9.332;2023-07-02T02:54:57;19.70;78.60
43320;DHT22;28914;48.722;9.332;2023-07-02T03:00:16;19.70;78.80
43320;DHT22;28914;48.722;9.332;2023-07-02T03:05:36;19.80;78.70
43320;DHT22;28914;48.722;9.332;2023-07-02T03:10:55;19.80;78.90
43320;DHT22;28914;48.722;9.332;2023-07-02T03:16:14;19.90;78.90
43320;DHT22;28914;48.722;9.332;2023-07-02T03:21:33;19.90;79.00
43320;DHT22;28914;48.722;9.332;2023-07-02T03:26:53;19.90;79.10
43320;DHT22;28914;48.722;9.332;2023-07-02T03:32:12;20.00;79.00
43320;DHT22;28914;48.722;9.332;2023-07-02T03:37:31;20.10;79.60
43320;DHT22;28914;48.722;9.332;2023-07-02T03:42:50;20.10;78.90
43320;DHT22;28914;48.722;9.332;2023-07-02T03:48:09;20.10;78.20
43320;DHT22;28914;48.722;9.332;2023-07-02T03:53:29;20.10;77.90
43320;DHT22;28914;48.722;9.332;2023-07-02T03:58:48;20.10;77.50
43320;DHT22;28914;48.722;9.332;2023-07-02T04:04:07;20.10;77.50
43320;DHT22;28914;48.722;9.332;2023-07-02T04:09:26;20.10;77.50
43320;DHT22;28914;48.722;9.332;2023-07-02T04:14:46;20.10;77.70
43320;DHT22;28914;48.722;9.332;2023-07-02T04:20:05;20.10;77.80
43320;DHT22;28914;48.722;9.332;2023-07-02T04:25:26;20.10;78.00
43320;DHT22;28914;48.722;9.332;2023-07-02T04:30:46;20.10;78.00
43320;DHT22;28914;48.722;9.332;2023-07-02T04:36:09;20.10;78.00
43320;DHT22;28914;48.722;9.332;2023-07-02T04:41:28;20.10;78.20
43320;DHT22;28914;48.722;9.332;2023-07-02T04:46:48;20.00;77.90
43320;DHT22;28914;48.722;9.332;2023-07-02T04:52:07;20.00;78.00
43320;DHT22;28914;48.722;9.332;2023-07-02T04:57:26;20.00;77.90
43320;DHT22;28914;48.722;9.332;2023-07-02T05:02:47;20.00;78.00
43320;DHT22;28914;48.722;9.332;2023-07-02T05:08:06;20.10;78.00
43320;DHT22;28914;48.722;9.332;2023-07-02T05:13:25;20.10;77.70
43320;DHT22;28914;48.722;9.332;2023-07-02T05:18:44;20.20;77.20
43320;DHT22;28914;48.722;9.332;2023-07-02T05:24:04;20.30;77.50
43320;DHT22;28914;48.722;9.332;2023-07-02T05:29:23;20.50;77.60
43320;DHT22;28914;48.722;9.332;2023-07-02T05:34:42;20.60;77.30
43320;DHT22;28914;48.722;9.332;2023-07-02T05:40:02;20.70;77.20
43320;DHT22;28914;48.722;9.332;2023-07-02T05:45:21;20.90;77.00
43320;DHT22;28914;48.722;9.332;2023-07-02T05:50:41;21.10;76.40
43320;DHT22;28914;48.722;9.332;2023-07-02T05:56:00;21.20;75.90
43320;DHT22;28914;48.722;9.332;2023-07-02T06:01:20;21.30;75.50
43320;DHT22;28914;48.722;9.332;2023-07-02T06:06:39;21.50;75.90
43320;DHT22;28914;48.722;9.332;2023-07-02T06:11:58;21.80;75.10
43320;DHT22;28914;48.722;9.332;2023-07-02T06:17:18;22.10;74.50
43320;DHT22;28914;48.722;9.332;2023-07-02T06:22:37;22.40;71.30
43320;DHT22;28914;48.722;9.332;2023-07-02T06:27:56;22.60;70.80
43320;DHT22;28914;48.722;9.332;2023-07-02T06:33:17;22.90;71.40
43320;DHT22;28914;48.722;9.332;2023-07-02T06:38:36;23.20;69.70
43320;DHT22;28914;48.722;9.332;2023-07-02T06:43:55;23.50;69.10
43320;DHT22;28914;48.722;9.332;2023-07-02T06:49:14;23.80;67.60
43320;DHT22;28914;48.722;9.332;2023-07-02T06:54:33;24.20;67.50
43320;DHT22;28914;48.722;9.332;2023-07-02T06:59:57;24.60;65.60
43320;DHT22;28914;48.722;9.332;2023-07-02T07:05:18;24.80;64.00
43320;DHT22;28914;48.722;9.332;2023-07-02T07:10:37;25.10;63.90
43320;DHT22;28914;48.722;9.332;2023-07-02T07:15:56;25.30;63.50
43320;DHT22;28914;48.722;9.332;2023-07-02T07:21:15;25.50;62.20
43320;DHT22;28914;48.722;9.332;2023-07-02T07:26:34;25.80;62.00
43320;DHT22;28914;48.722;9.332;2023-07-02T07:31:54;26.10;60.10
43320;DHT22;28914;48.722;9.332;2023-07-02T07:37:13;26.50;58.00
43320;DHT22;28914;48.722;9.332;2023-07-02T07:42:32;26.90;57.20
43320;DHT22;28914;48.722;9.332;2023-07-02T07:47:52;27.20;58.20
43320;DHT22;28914;48.722;9.332;2023-07-02T07:53:11;27.50;57.70
43320;DHT22;28914;48.722;9.332;2023-07-02T07:58:30;27.90;56.40
43320;DHT22;28914;48.722;9.332;2023-07-02T08:03:50;28.10;54.90
43320;DHT22;28914;48.722;9.332;2023-07-02T08:09:10;28.40;54.40
43320;DHT22;28914;48.722;9.332;2023-07-02T08:14:29;29.20;55.50
43320;DHT22;28914;48.722;9.332;2023-07-02T08:19:49;30.30;53.20
43320;DHT22;28914;48.722;9.332;2023-07-02T08:25:08;31.00;52.20
43320;DHT22;28914;48.722;9.332;2023-07-02T08:30:27;31.30;50.20
43320;DHT22;28914;48.722;9.332;2023-07-02T08:35:47;31.70;49.50
43320;DHT22;28914;48.722;9.332;2023-07-02T08:41:06;31.90;49.50
43320;DHT22;28914;48.722;9.332;2023-07-02T08:46:25;32.40;47.50
43320;DHT22;28914;48.722;9.332;2023-07-02T08:51:46;32.60;48.30
43320;DHT22;28914;48.722;9.332;2023-07-02T08:57:06;33.40;46.50
43320;DHT22;28914;48.722;9.332;2023-07-02T09:02:34;34.10;43.40
43320;DHT22;28914;48.722;9.332;2023-07-02T09:07:53;34.10;42.90
43320;DHT22;28914;48.722;9.332;2023-07-02T09:13:12;34.30;45.30
43320;DHT22;28914;48.722;9.332;2023-07-02T09:18:31;35.40;43.70
43320;DHT22;28914;48.722;9.332;2023-07-02T09:23:51;36.70;43.00
43320;DHT22;28914;48.722;9.332;2023-07-02T09:29:10;37.00;39.80
43320;DHT22;28914;48.722;9.332;2023-07-02T09:34:36;36.80;40.60
43320;DHT22;28914;48.722;9.332;2023-07-02T09:39:55;37.50;40.50
43320;DHT22;28914;48.722;9.332;2023-07-02T09:45:15;38.90;40.30
43320;DHT22;28914;48.722;9.332;2023-07-02T09:50:34;40.30;37.60
43320;DHT22;28914;48.722;9.332;2023-07-02T09:55:57;41.50;37.40
43320;DHT22;28914;48.722;9.332;2023-07-02T10:01:16;42.20;35.90
43320;DHT22;28914;48.722;9.332;2023-07-02T10:06:53;42.20;33.90
43320;DHT22;28914;48.722;9.332;2023-07-02T10:12:29;42.20;33.00
43320;DHT22;28914;48.722;9.332;2023-07-02T10:17:58;43.20;32.70
43320;DHT22;28914;48.722;9.332;2023-07-02T10:23:18;43.50;31.00
43320;DHT22;28914;48.722;9.332;2023-07-02T10:28:37;43.20;31.40
43320;DHT22;28914;48.722;9.332;2023-07-02T10:33:56;42.70;30.60
43320;DHT22;28914;48.722;9.332;2023-07-02T10:39:16;42.80;32.30
43320;DHT22;28914;48.722;9.332;2023-07-02T10:44:50;43.40;29.90
43320;DHT22;28914;48.722;9.332;2023-07-02T10:50:15;44.20;30.00
43320;DHT22;28914;48.722;9.332;2023-07-02T10:55:35;44.70;28.40
43320;DHT22;28914;48.722;9.332;2023-07-02T11:00:54;44.50;28.90
43320;DHT22;28914;48.722;9.332;2023-07-02T11:06:14;44.00;28.10
43320;DHT22;28914;48.722;9.332;2023-07-02T11:11:33;43.30;27.70
43320;DHT22;28914;48.722;9.332;2023-07-02T11:16:57;42.50;29.00
43320;DHT22;28914;48.722;9.332;2023-07-02T11:22:16;42.20;29.40
43320;DHT22;28914;48.722;9.332;2023-07-02T11:27:35;41.60;28.20
43320;DHT22;28914;48.722;9.332;2023-07-02T11:32:55;40.40;28.50
43320;DHT22;28914;48.722;9.332;2023-07-02T11:38:14;39.00;28.80
43320;DHT22;28914;48.722;9.332;2023-07-02T11:43:33;37.80;29.50
43320;DHT22;28914;48.722;9.332;2023-07-02T11:48:53;36.80;30.00
43320;DHT22;28914;48.722;9.332;2023-07-02T11:54:12;36.10;30.80
43320;DHT22;28914;48.722;9.332;2023-07-02T11:59:31;35.50;31.30
43320;DHT22;28914;48.722;9.332;2023-07-02T12:04:50;35.00;31.60
43320;DHT22;28914;48.722;9.332;2023-07-02T12:10:10;34.50;32.00
43320;DHT22;28914;48.722;9.332;2023-07-02T12:15:29;34.10;32.60
43320;DHT22;28914;48.722;9.332;2023-07-02T12:20:48;33.80;32.60
43320;DHT22;28914;48.722;9.332;2023-07-02T12:26:07;33.50;32.90
43320;DHT22;28914;48.722;9.332;2023-07-02T12:31:27;33.40;32.80
43320;DHT22;28914;48.722;9.332;2023-07-02T12:36:46;33.10;33.00
43320;DHT22;28914;48.722;9.332;2023-07-02T12:42:05;33.10;33.10
43320;DHT22;28914;48.722;9.332;2023-07-02T12:47:24;32.90;33.60
43320;DHT22;28914;48.722;9.332;2023-07-02T12:52:43;33.00;34.00
43320;DHT22;28914;48.722;9.332;2023-07-02T12:58:02;33.00;33.10
43320;DHT22;28914;48.722;9.332;2023-07-02T13:03:21;32.90;33.50
43320;DHT22;28914;48.722;9.332;2023-07-02T13:08:42;32.80;33.40
43320;DHT22;28914;48.722;9.332;2023-07-02T13:14:01;32.60;33.00
43320;DHT22;28914;48.722;9.332;2023-07-02T13:19:20;32.40;33.40
43320;DHT22;28914;48.722;9.332;2023-07-02T13:24:39;32.10;33.20
43320;DHT22;28914;48.722;9.332;2023-07-02T13:29:59;31.80;33.50
43320;DHT22;28914;48.722;9.332;2023-07-02T13:35:18;31.50;34.00
43320;DHT22;28914;48.722;9.332;2023-07-02T13:40:37;31.30;34.30
43320;DHT22;28914;48.722;9.332;2023-07-02T13:45:57;31.00;34.50
43320;DHT22;28914;48.722;9.332;2023-07-02T13:51:16;30.80;34.80
43320;DHT22;28914;48.722;9.332;2023-07-02T13:56:34;30.70;34.70
43320;DHT22;28914;48.722;9.332;2023-07-02T14:01:54;30.70;34.80
43320;DHT22;28914;48.722;9.332;2023-07-02T14:07:13;30.70;34.80
43320;DHT22;28914;48.722;9.332;2023-07-02T14:12:32;30.80;34.50
43320;DHT22;28914;48.722;9.332;2023-07-02T14:17:52;30.70;34.40
43320;DHT22;28914;48.722;9.332;2023-07-02T14:23:11;30.70;34.50
43320;DHT22;28914;48.722;9.332;2023-07-02T14:28:30;30.80;34.20
43320;DHT22;28914;48.722;9.332;2023-07-02T14:33:50;30.80;34.30
43320;DHT22;28914;48.722;9.332;2023-07-02T14:39:08;30.80;34.30
43320;DHT22;28914;48.722;9.332;2023-07-02T14:44:28;30.80;34.00
43320;DHT22;28914;48.722;9.332;2023-07-02T14:49:47;30.70;34.10
43320;DHT22;28914;48.722;9.332;2023-07-02T14:55:07;30.60;34.00
43320;DHT22;28914;48.722;9.332;2023-07-02T15:00:26;30.60;34.30
43320;DHT22;28914;48.722;9.332;2023-07-02T15:05:46;30.60;34.60
43320;DHT22;28914;48.722;9.332;2023-07-02T15:11:06;30.60;34.80
43320;DHT22;28914;48.722;9.332;2023-07-02T15:16:25;30.60;34.90
43320;DHT22;28914;48.722;9.332;2023-07-02T15:21:44;30.70;34.80
43320;DHT22;28914;48.722;9.332;2023-07-02T15:27:04;30.80;34.40
43320;DHT22;28914;48.722;9.332;2023-07-02T15:32:24;30.70;34.80
43320;DHT22;28914;48.722;9.332;2023-07-02T15:37:43;30.80;34.90
43320;DHT22;28914;48.722;9.332;2023-07-02T15:43:02;30.80;35.00
43320;DHT22;28914;48.722;9.332;2023-07-02T15:48:21;30.70;35.00
43320;DHT22;28914;48.722;9.332;2023-07-02T15:53:41;30.70;34.90
43320;DHT22;28914;48.722;9.332;2023-07-02T15:59:02;30.60;35.10
43320;DHT22;28914;48.722;9.332;2023-07-02T16:04:21;30.40;35.40
43320;DHT22;28914;48.722;9.332;2023-07-02T16:09:41;30.30;35.40
43320;DHT22;28914;48.722;9.332;2023-07-02T16:15:00;30.20;35.50
43320;DHT22;28914;48.722;9.332;2023-07-02T16:20:19;30.00;35.70
43320;DHT22;28914;48.722;9.332;2023-07-02T16:25:38;29.90;35.70
43320;DHT22;28914;48.722;9.332;2023-07-02T16:30:58;29.80;35.80
43320;DHT22;28914;48.722;9.332;2023-07-02T16:36:17;29.60;35.90
43320;DHT22;28914;48.722;9.332;2023-07-02T16:41:36;29.40;36.00
43320;DHT22;28914;48.722;9.332;2023-07-02T16:47:04;29.30;36.40
43320;DHT22;28914;48.722;9.332;2023-07-02T16:52:24;29.10;36.50
43320;DHT22;28914;48.722;9.332;2023-07-02T16:57:43;28.90;36.70
43320;DHT22;28914;48.722;9.332;2023-07-02T17:03:02;28.70;36.90
43320;DHT22;28914;48.722;9.332;2023-07-02T17:08:22;28.60;37.10
43320;DHT22;28914;48.722;9.332;2023-07-02T17:13:41;28.40;37.30
43320;DHT22;28914;48.722;9.332;2023-07-02T17:19:00;28.30;37.40
43320;DHT22;28914;48.722;9.332;2023-07-02T17:24:26;28.20;37.60
43320;DHT22;28914;48.722;9.332;2023-07-02T17:29:50;28.10;37.80
43320;DHT22;28914;48.722;9.332;2023-07-02T17:35:10;27.90;38.70
43320;DHT22;28914;48.722;9.332;2023-07-02T17:40:32;27.80;38.20
43320;DHT22;28914;48.722;9.332;2023-07-02T17:45:56;27.70;38.40
43320;DHT22;28914;48.722;9.332;2023-07-02T17:51:15;27.60;38.60
43320;DHT22;28914;48.722;9.332;2023-07-02T17:56:35;27.50;38.60
43320;DHT22;28914;48.722;9.332;2023-07-02T18:01:54;27.40;38.90
43320;DHT22;28914;48.722;9.332;2023-07-02T18:07:20;27.30;39.20
43320;DHT22;28914;48.722;9.332;2023-07-02T18:12:39;27.20;39.20
43320;DHT22;28914;48.722;9.332;2023-07-02T18:17:58;27.00;39.20
43320;DHT22;28914;48.722;9.332;2023-07-02T18:23:18;26.90;39.20
43320;DHT22;28914;48.722;9.332;2023-07-02T18:28:37;26.80;39.30
43320;DHT22;28914;48.722;9.332;2023-07-02T18:33:56;26.70;39.80
43320;DHT22;28914;48.722;9.332;2023-07-02T18:39:16;26.60;40.30
43320;DHT22;28914;48.722;9.332;2023-07-02T18:44:36;26.40;40.30
43320;DHT22;28914;48.722;9.332;2023-07-02T18:49:55;26.30;40.60
43320;DHT22;28914;48.722;9.332;2023-07-02T18:55:14;26.10;40.70
43320;DHT22;28914;48.722;9.332;2023-07-02T19:00:33;25.90;41.20
43320;DHT22;28914;48.722;9.332;2023-07-02T19:05:53;25.70;41.60
43320;DHT22;28914;48.722;9.332;2023-07-02T19:11:12;25.60;41.50
43320;DHT22;28914;48.722;9.332;2023-07-02T19:16:31;25.40;42.00
43320;DHT22;28914;48.722;9.332;2023-07-02T19:21:50;25.30;41.80
43320;DHT22;28914;48.722;9.332;2023-07-02T19:27:11;25.20;42.00
43320;DHT22;28914;48.722;9.332;2023-07-02T19:32:32;25.10;42.20
43320;DHT22;28914;48.722;9.332;2023-07-02T19:37:56;25.00;42.30
43320;DHT22;28914;48.722;9.332;2023-07-02T19:43:15;24.80;42.50
43320;DHT22;28914;48.722;9.332;2023-07-02T19:48:35;24.70;42.50
43320;DHT22;28914;48.722;9.332;2023-07-02T19:53:54;24.60;42.70
43320;DHT22;28914;48.722;9.332;2023-07-02T19:59:13;24.50;42.80
43320;DHT22;28914;48.722;9.332;2023-07-02T20:04:33;24.40;43.10
43320;DHT22;28914;48.722;9.332;2023-07-02T20:09:53;24.30;43.40
43320;DHT22;28914;48.722;9.332;2023-07-02T20:15:12;24.10;43.60
43320;DHT22;28914;48.722;9.332;2023-07-02T20:20:31;24.00;43.90
43320;DHT22;28914;48.722;9.332;2023-07-02T20:25:51;23.90;43.90
43320;DHT22;28914;48.722;9.332;2023-07-02T20:31:10;23.70;44.10
43320;DHT22;28914;48.722;9.332;2023-07-02T20:36:29;23.70;44.40
43320;DHT22;28914;48.722;9.332;2023-07-02T20:41:49;23.50;44.60
43320;DHT22;28914;48.722;9.332;2023-07-02T20:47:08;23.40;45.00
43320;DHT22;28914;48.722;9.332;2023-07-02T20:52:27;23.20;45.20
43320;DHT22;28914;48.722;9.332;2023-07-02T20:57:46;23.10;45.10
43320;DHT22;28914;48.722;9.332;2023-07-02T21:03:05;23.00;45.40
43320;DHT22;28914;48.722;9.332;2023-07-02T21:08:25;22.80;46.30
43320;DHT22;28914;48.722;9.332;2023-07-02T21:13:44;22.80;46.10
43320;DHT22;28914;48.722;9.332;2023-07-02T21:19:03;22.80;46.20
43320;DHT22;28914;48.722;9.332;2023-07-02T21:24:23;22.60;46.20
43320;DHT22;28914;48.722;9.332;2023-07-02T21:29:42;22.50;46.70
43320;DHT22;28914;48.722;9.332;2023-07-02T21:35:01;22.40;46.90
43320;DHT22;28914;48.722;9.332;2023-07-02T21:40:20;22.30;47.00
43320;DHT22;28914;48.722;9.332;2023-07-02T21:45:39;22.20;47.10
43320;DHT22;28914;48.722;9.332;2023-07-02T21:50:58;22.10;47.30
43320;DHT22;28914;48.722;9.332;2023-07-02T21:56:18;22.10;47.50
43320;DHT22;28914;48.722;9.332;2023-07-02T22:01:40;22.00;48.10
43320;DHT22;28914;48.722;9.332;2023-07-02T22:06:59;21.80;48.60
43320;DHT22;28914;48.722;9.332;2023-07-02T22:12:18;21.70;48.80
43320;DHT22;28914;48.722;9.332;2023-07-02T22:17:37;21.50;48.90
43320;DHT22;28914;48.722;9.332;2023-07-02T22:22:57;21.40;49.30
43320;DHT22;28914;48.722;9.332;2023-07-02T22:28:16;21.20;49.50
43320;DHT22;28914;48.722;9.332;2023-07-02T22:33:36;21.10;50.00
43320;DHT22;28914;48.722;9.332;2023-07-02T22:38:55;20.90;50.30
43320;DHT22;28914;48.722;9.332;2023-07-02T22:44:14;20.80;50.40
43320;DHT22;28914;48.722;9.332;2023-07-02T22:49:33;20.70;50.80
43320;DHT22;28914;48.722;9.332;2023-07-02T22:54:54;20.60;51.30
43320;DHT22;28914;48.722;9.332;2023-07-02T23:00:15;20.40;51.50
43320;DHT22;28914;48.722;9.332;2023-07-02T23:05:35;20.30;52.00
43320;DHT22;28914;48.722;9.332;2023-07-02T23:10:54;20.20;52.40
43320;DHT22;28914;48.722;9.332;2023-07-02T23:16:14;20.10;52.80
43320;DHT22;28914;48.722;9.332;2023-07-02T23:21:33;20.00;53.00
43320;DHT22;28914;48.722;9.332;2023-07-02T23:26:52;19.80;53.60
43320;DHT22;28914;48.722;9.332;2023-07-02T23:32:11;19.70;54.80
43320;DHT22;28914;48.722;9.332;2023-07-02T23:37:31;19.60;54.70
43320;DHT22;28914;48.722;9.332;2023-07-02T23:42:50;19.50;54.80
43320;DHT22;28914;48.722;9.332;2023-07-02T23:48:10;19.40;54.90
43320;DHT22;28914;48.722;9.332;2023-07-02T23:53:29;19.20;55.00
43320;DHT22;28914;48.722;9.332;2023-07-02T23:58:48;19.10;55.50
